sensor_id;sensor_type;location;lat;lon;timestamp;P1;durP1;ratioP1;P2;durP2;ratioP2
7903;SDS011;3997;48.416;8.512;2023-08-20T00:01:26;8.82;;;8.13;;
7903;SDS011;3997;48.416;8.512;2023-08-20T00:03:53;8.57;;;7.97;;
7903;SDS011;3997;48.416;8.512;2023-08-20T00:06:20;10.27;;;9.23;;
7903;SDS011;3997;48.416;8.512;2023-08-20T00:08:47;10.07;;;9.13;;
7903;SDS011;3997;48.416;8.512;2023-08-20T00:11:13;9.88;;;9.00;;
7903;SDS011;3997;48.416;8.512;2023-08-20T00:13:40;10.30;;;9.40;;
7903;SDS011;3997;48.416;8.512;2023-08-20T00:16:07;9.73;;;8.90;;
7903;SDS011;3997;48.416;8.512;2023-08-20T00:18:35;13.05;;;9.00;;
7903;SDS011;3997;48.416;8.512;2023-08-20T00:21:03;9.15;;;8.23;;
7903;SDS011;3997;48.416;8.512;2023-08-20T00:23:30;9.45;;;8.65;;
7903;SDS011;3997;48.416;8.512;2023-08-20T00:25:57;8.73;;;8.02;;
7903;SDS011;3997;48.416;8.512;2023-08-20T00:28:23;9.05;;;8.25;;
7903;SDS011;3997;48.416;8.512;2023-08-20T00:30:50;9.63;;;8.77;;
7903;SDS011;3997;48.416;8.512;2023-08-20T00:33:17;8.63;;;7.90;;
7903;SDS011;3997;48.416;8.512;2023-08-20T00:35:45;10.02;;;9.05;;
7903;SDS011;3997;48.416;8.512;2023-08-20T00:38:11;9.88;;;9.07;;
7903;SDS011;3997;48.416;8.512;2023-08-20T00:40:38;10.40;;;8.68;;
7903;SDS011;3997;48.416;8.512;2023-08-20T00:43:04;9.98;;;9.00;;
7903;SDS011;3997;48.416;8.512;2023-08-20T00:45:31;9.68;;;8.77;;
7903;SDS011;3997;48.416;8.512;2023-08-20T00:47:58;9.98;;;8.93;;
7903;SDS011;3997;48.416;8.512;2023-08-20T00:50:24;9.80;;;9.00;;
7903;SDS011;3997;48.416;8.512;2023-08-20T00:52:52;9.65;;;8.85;;
7903;SDS011;3997;48.416;8.512;2023-08-20T00:55:18;10.45;;;9.65;;
7903;SDS011;3997;48.416;8.512;2023-08-20T00:57:45;10.40;;;9.40;;
7903;SDS011;3997;48.416;8.512;2023-08-20T01:00:11;10.07;;;8.98;;
7903;SDS011;3997;48.416;8.512;2023-08-20T01:02:38;9.52;;;8.68;;
7903;SDS011;3997;48.416;8.512;2023-08-20T01:05:05;9.82;;;9.00;;
7903;SDS011;3997;48.416;8.512;2023-08-20T01:07:34;9.65;;;8.95;;
7903;SDS011;3997;48.416;8.512;2023-08-20T01:10:08;10.43;;;9.57;;
7903;SDS011;3997;48.416;8.512;2023-08-20T01:12:36;10.20;;;9.40;;
7903;SDS011;3997;48.416;8.512;2023-08-20T01:15:05;9.63;;;8.77;;
7903;SDS011;3997;48.416;8.512;2023-08-20T01:17:33;10.65;;;9.63;;
7903;SDS011;3997;48.416;8.512;2023-08-20T01:20:00;10.50;;;9.68;;
7903;SDS011;3997;48.416;8.512;2023-08-20T01:22:35;9.63;;;8.82;;
7903;SDS011;3997;48.416;8.512;2023-08-20T01:25:08;9.73;;;9.00;;
7903;SDS011;3997;48.416;8.512;2023-08-20T01:27:42;11.07;;;9.43;;
7903;SDS011;3997;48.416;8.512;2023-08-20T01:30:11;9.95;;;9.15;;
7903;SDS011;3997;48.416;8.512;2023-08-20T01:32:38;10.55;;;9.70;;
7903;SDS011;3997;48.416;8.512;2023-08-20T01:35:07;10.18;;;9.27;;
7903;SDS011;3997;48.416;8.512;2023-08-20T01:37:34;10.30;;;9.23;;
7903;SDS011;3997;48.416;8.512;2023-08-20T01:40:00;10.77;;;8.65;;
7903;SDS011;3997;48.416;8.512;2023-08-20T01:42:27;10.70;;;9.80;;
7903;SDS011;3997;48.416;8.512;2023-08-20T01:44:54;9.80;;;9.00;;
7903;SDS011;3997;48.416;8.512;2023-08-20T01:47:21;10.02;;;9.32;;
7903;SDS011;3997;48.416;8.512;2023-08-20T01:49:48;10.40;;;9.60;;
7903;SDS011;3997;48.416;8.512;2023-08-20T01:52:14;11.27;;;9.50;;
7903;SDS011;3997;48.416;8.512;2023-08-20T01:54:41;11.23;;;9.93;;
7903;SDS011;3997;48.416;8.512;2023-08-20T01:57:07;10.38;;;9.57;;
7903;SDS011;3997;48.416;8.512;2023-08-20T01:59:34;10.23;;;9.23;;
7903;SDS011;3997;48.416;8.512;2023-08-20T02:02:00;11.13;;;9.13;;
7903;SDS011;3997;48.416;8.512;2023-08-20T02:04:28;10.43;;;9.43;;
7903;SDS011;3997;48.416;8.512;2023-08-20T02:06:56;11.55;;;9.00;;
7903;SDS011;3997;48.416;8.512;2023-08-20T02:09:22;9.80;;;9.07;;
7903;SDS011;3997;48.416;8.512;2023-08-20T02:11:49;9.82;;;9.10;;
7903;SDS011;3997;48.416;8.512;2023-08-20T02:14:16;9.57;;;8.77;;
7903;SDS011;3997;48.416;8.512;2023-08-20T02:16:42;10.30;;;9.32;;
7903;SDS011;3997;48.416;8.512;2023-08-20T02:19:09;10.50;;;9.50;;
7903;SDS011;3997;48.416;8.512;2023-08-20T02:21:37;10.52;;;9.77;;
7903;SDS011;3997;48.416;8.512;2023-08-20T02:24:03;10.45;;;9.45;;
7903;SDS011;3997;48.416;8.512;2023-08-20T02:26:30;10.80;;;9.93;;
7903;SDS011;3997;48.416;8.512;2023-08-20T02:28:56;10.50;;;9.52;;
7903;SDS011;3997;48.416;8.512;2023-08-20T02:31:23;11.90;;;9.05;;
7903;SDS011;3997;48.416;8.512;2023-08-20T02:33:49;10.30;;;9.30;;
7903;SDS011;3997;48.416;8.512;2023-08-20T02:36:15;9.88;;;9.13;;
7903;SDS011;3997;48.416;8.512;2023-08-20T02:38:44;9.95;;;9.10;;
7903;SDS011;3997;48.416;8.512;2023-08-20T02:41:11;10.13;;;9.32;;
7903;SDS011;3997;48.416;8.512;2023-08-20T02:43:37;10.23;;;9.35;;
7903;SDS011;3997;48.416;8.512;2023-08-20T02:46:03;10.40;;;9.40;;
7903;SDS011;3997;48.416;8.512;2023-08-20T02:48:30;10.18;;;9.38;;
7903;SDS011;3997;48.416;8.512;2023-08-20T02:50:56;10.38;;;9.38;;
7903;SDS011;3997;48.416;8.512;2023-08-20T02:53:23;9.73;;;8.77;;
7903;SDS011;3997;48.416;8.512;2023-08-20T02:55:50;9.90;;;8.90;;
7903;SDS011;3997;48.416;8.512;2023-08-20T02:58:17;9.38;;;8.70;;
7903;SDS011;3997;48.416;8.512;2023-08-20T03:00:43;9.68;;;8.88;;
7903;SDS011;3997;48.416;8.512;2023-08-20T03:03:10;9.05;;;8.35;;
7903;SDS011;3997;48.416;8.512;2023-08-20T03:05:36;9.77;;;8.88;;
7903;SDS011;3997;48.416;8.512;2023-08-20T03:08:03;10.30;;;9.25;;
7903;SDS011;3997;48.416;8.512;2023-08-20T03:10:30;9.80;;;8.93;;
7903;SDS011;3997;48.416;8.512;2023-08-20T03:12:57;9.73;;;8.82;;
7903;SDS011;3997;48.416;8.512;2023-08-20T03:15:24;9.63;;;8.57;;
7903;SDS011;3997;48.416;8.512;2023-08-20T03:17:50;10.10;;;9.10;;
7903;SDS011;3997;48.416;8.512;2023-08-20T03:20:17;10.25;;;9.35;;
7903;SDS011;3997;48.416;8.512;2023-08-20T03:22:43;10.18;;;9.35;;
7903;SDS011;3997;48.416;8.512;2023-08-20T03:25:10;10.15;;;9.30;;
7903;SDS011;3997;48.416;8.512;2023-08-20T03:27:36;9.60;;;8.82;;
7903;SDS011;3997;48.416;8.512;2023-08-20T03:30:04;9.75;;;8.85;;
7903;SDS011;3997;48.416;8.512;2023-08-20T03:32:31;10.27;;;9.32;;
7903;SDS011;3997;48.416;8.512;2023-08-20T03:34:58;10.13;;;9.25;;
7903;SDS011;3997;48.416;8.512;2023-08-20T03:37:24;10.35;;;9.20;;
7903;SDS011;3997;48.416;8.512;2023-08-20T03:39:51;10.40;;;9.40;;
7903;SDS011;3997;48.416;8.512;2023-08-20T03:42:17;10.23;;;9.32;;
7903;SDS011;3997;48.416;8.512;2023-08-20T03:44:44;9.98;;;9.13;;
7903;SDS011;3997;48.416;8.512;2023-08-20T03:47:12;10.57;;;8.90;;
7903;SDS011;3997;48.416;8.512;2023-08-20T03:49:38;9.77;;;8.98;;
7903;SDS011;3997;48.416;8.512;2023-08-20T03:52:05;10.25;;;9.52;;
7903;SDS011;3997;48.416;8.512;2023-08-20T03:54:32;11.07;;;10.00;;
7903;SDS011;3997;48.416;8.512;2023-08-20T03:56:59;9.88;;;9.18;;
7903;SDS011;3997;48.416;8.512;2023-08-20T03:59:25;10.23;;;9.43;;
7903;SDS011;3997;48.416;8.512;2023-08-20T04:01:52;10.80;;;9.90;;
7903;SDS011;3997;48.416;8.512;2023-08-20T04:04:19;11.55;;;10.45;;
7903;SDS011;3997;48.416;8.512;2023-08-20T04:06:46;11.10;;;10.10;;
7903;SDS011;3997;48.416;8.512;2023-08-20T04:09:13;11.55;;;10.65;;
7903;SDS011;3997;48.416;8.512;2023-08-20T04:11:39;10.85;;;9.95;;
7903;SDS011;3997;48.416;8.512;2023-08-20T04:14:06;11.20;;;10.30;;
7903;SDS011;3997;48.416;8.512;2023-08-20T04:16:32;10.73;;;9.85;;
7903;SDS011;3997;48.416;8.512;2023-08-20T04:18:58;12.20;;;11.10;;
7903;SDS011;3997;48.416;8.512;2023-08-20T04:21:26;11.30;;;10.23;;
7903;SDS011;3997;48.416;8.512;2023-08-20T04:23:53;12.20;;;10.90;;
7903;SDS011;3997;48.416;8.512;2023-08-20T04:26:19;12.45;;;11.35;;
7903;SDS011;3997;48.416;8.512;2023-08-20T04:28:45;11.82;;;10.68;;
7903;SDS011;3997;48.416;8.512;2023-08-20T04:31:12;11.82;;;10.88;;
7903;SDS011;3997;48.416;8.512;2023-08-20T04:33:38;12.38;;;11.27;;
7903;SDS011;3997;48.416;8.512;2023-08-20T04:36:05;11.43;;;10.52;;
7903;SDS011;3997;48.416;8.512;2023-08-20T04:38:33;12.50;;;11.40;;
7903;SDS011;3997;48.416;8.512;2023-08-20T04:40:59;12.10;;;10.63;;
7903;SDS011;3997;48.416;8.512;2023-08-20T04:43:25;11.57;;;10.50;;
7903;SDS011;3997;48.416;8.512;2023-08-20T04:45:52;11.48;;;10.48;;
7903;SDS011;3997;48.416;8.512;2023-08-20T04:48:18;11.55;;;10.50;;
7903;SDS011;3997;48.416;8.512;2023-08-20T04:50:45;12.93;;;10.15;;
7903;SDS011;3997;48.416;8.512;2023-08-20T04:53:11;11.15;;;9.98;;
7903;SDS011;3997;48.416;8.512;2023-08-20T04:55:39;11.15;;;10.05;;
7903;SDS011;3997;48.416;8.512;2023-08-20T04:58:06;10.63;;;9.63;;
7903;SDS011;3997;48.416;8.512;2023-08-20T05:00:32;11.70;;;10.50;;
7903;SDS011;3997;48.416;8.512;2023-08-20T05:02:59;10.70;;;9.82;;
7903;SDS011;3997;48.416;8.512;2023-08-20T05:05:25;11.25;;;10.00;;
7903;SDS011;3997;48.416;8.512;2023-08-20T05:07:52;10.80;;;9.90;;
7903;SDS011;3997;48.416;8.512;2023-08-20T05:10:18;12.52;;;9.70;;
7903;SDS011;3997;48.416;8.512;2023-08-20T05:12:46;9.82;;;9.13;;
7903;SDS011;3997;48.416;8.512;2023-08-20T05:15:13;10.05;;;9.25;;
7903;SDS011;3997;48.416;8.512;2023-08-20T05:17:39;10.45;;;9.55;;
7903;SDS011;3997;48.416;8.512;2023-08-20T05:20:06;10.20;;;9.30;;
7903;SDS011;3997;48.416;8.512;2023-08-20T05:22:34;10.57;;;9.45;;
7903;SDS011;3997;48.416;8.512;2023-08-20T05:25:00;11.45;;;9.23;;
7903;SDS011;3997;48.416;8.512;2023-08-20T05:27:26;13.45;;;10.48;;
7903;SDS011;3997;48.416;8.512;2023-08-20T05:29:54;10.40;;;9.60;;
7903;SDS011;3997;48.416;8.512;2023-08-20T05:32:21;10.15;;;9.35;;
7903;SDS011;3997;48.416;8.512;2023-08-20T05:34:47;9.93;;;9.18;;
7903;SDS011;3997;48.416;8.512;2023-08-20T05:37:14;10.57;;;9.63;;
7903;SDS011;3997;48.416;8.512;2023-08-20T05:39:40;11.20;;;10.20;;
7903;SDS011;3997;48.416;8.512;2023-08-20T05:42:07;10.52;;;9.63;;
7903;SDS011;3997;48.416;8.512;2023-08-20T05:44:33;10.93;;;9.93;;
7903;SDS011;3997;48.416;8.512;2023-08-20T05:47:01;10.50;;;9.70;;
7903;SDS011;3997;48.416;8.512;2023-08-20T05:49:27;10.73;;;9.57;;
7903;SDS011;3997;48.416;8.512;2023-08-20T05:51:54;10.70;;;9.80;;
7903;SDS011;3997;48.416;8.512;2023-08-20T05:54:20;11.02;;;10.10;;
7903;SDS011;3997;48.416;8.512;2023-08-20T05:56:47;10.63;;;9.77;;
7903;SDS011;3997;48.416;8.512;2023-08-20T05:59:13;10.98;;;9.98;;
7903;SDS011;3997;48.416;8.512;2023-08-20T06:01:40;10.38;;;9.57;;
7903;SDS011;3997;48.416;8.512;2023-08-20T06:04:07;10.35;;;9.65;;
7903;SDS011;3997;48.416;8.512;2023-08-20T06:06:34;10.52;;;9.75;;
7903;SDS011;3997;48.416;8.512;2023-08-20T06:09:01;10.43;;;9.60;;
7903;SDS011;3997;48.416;8.512;2023-08-20T06:11:27;10.80;;;9.70;;
7903;SDS011;3997;48.416;8.512;2023-08-20T06:13:54;10.35;;;9.45;;
7903;SDS011;3997;48.416;8.512;2023-08-20T06:16:20;10.90;;;9.90;;
7903;SDS011;3997;48.416;8.512;2023-08-20T06:18:46;10.57;;;9.70;;
7903;SDS011;3997;48.416;8.512;2023-08-20T06:21:14;10.00;;;9.00;;
7903;SDS011;3997;48.416;8.512;2023-08-20T06:23:41;9.60;;;8.85;;
7903;SDS011;3997;48.416;8.512;2023-08-20T06:26:07;10.25;;;9.27;;
7903;SDS011;3997;48.416;8.512;2023-08-20T06:28:34;10.00;;;9.10;;
7903;SDS011;3997;48.416;8.512;2023-08-20T06:31:00;10.10;;;9.20;;
7903;SDS011;3997;48.416;8.512;2023-08-20T06:33:29;10.38;;;9.52;;
7903;SDS011;3997;48.416;8.512;2023-08-20T06:35:55;9.98;;;9.07;;
7903;SDS011;3997;48.416;8.512;2023-08-20T06:38:23;10.18;;;9.27;;
7903;SDS011;3997;48.416;8.512;2023-08-20T06:40:50;10.02;;;9.20;;
7903;SDS011;3997;48.416;8.512;2023-08-20T06:43:16;11.50;;;10.07;;
7903;SDS011;3997;48.416;8.512;2023-08-20T06:45:43;10.73;;;9.70;;
7903;SDS011;3997;48.416;8.512;2023-08-20T06:48:09;11.23;;;10.15;;
7903;SDS011;3997;48.416;8.512;2023-08-20T06:50:36;10.73;;;9.70;;
7903;SDS011;3997;48.416;8.512;2023-08-20T06:53:02;9.43;;;8.65;;
7903;SDS011;3997;48.416;8.512;2023-08-20T06:55:30;9.45;;;8.50;;
7903;SDS011;3997;48.416;8.512;2023-08-20T06:57:56;9.68;;;8.88;;
7903;SDS011;3997;48.416;8.512;2023-08-20T07:00:23;9.43;;;8.70;;
7903;SDS011;3997;48.416;8.512;2023-08-20T07:02:49;10.15;;;9.18;;
7903;SDS011;3997;48.416;8.512;2023-08-20T07:05:15;10.35;;;9.40;;
7903;SDS011;3997;48.416;8.512;2023-08-20T07:07:43;8.63;;;7.82;;
7903;SDS011;3997;48.416;8.512;2023-08-20T07:10:10;9.32;;;8.60;;
7903;SDS011;3997;48.416;8.512;2023-08-20T07:12:38;9.07;;;8.27;;
7903;SDS011;3997;48.416;8.512;2023-08-20T07:15:05;9.38;;;8.48;;
7903;SDS011;3997;48.416;8.512;2023-08-20T07:17:32;9.23;;;8.52;;
7903;SDS011;3997;48.416;8.512;2023-08-20T07:19:58;8.98;;;8.27;;
7903;SDS011;3997;48.416;8.512;2023-08-20T07:22:25;8.55;;;7.85;;
7903;SDS011;3997;48.416;8.512;2023-08-20T07:24:51;8.75;;;7.28;;
7903;SDS011;3997;48.416;8.512;2023-08-20T07:27:17;8.70;;;7.80;;
7903;SDS011;3997;48.416;8.512;2023-08-20T07:29:45;8.50;;;7.15;;
7903;SDS011;3997;48.416;8.512;2023-08-20T07:32:12;8.40;;;7.07;;
7903;SDS011;3997;48.416;8.512;2023-08-20T07:34:38;7.65;;;7.07;;
7903;SDS011;3997;48.416;8.512;2023-08-20T07:37:04;7.55;;;6.78;;
7903;SDS011;3997;48.416;8.512;2023-08-20T07:39:31;11.18;;;7.38;;
7903;SDS011;3997;48.416;8.512;2023-08-20T07:41:57;8.48;;;7.78;;
7903;SDS011;3997;48.416;8.512;2023-08-20T07:44:24;8.32;;;7.63;;
7903;SDS011;3997;48.416;8.512;2023-08-20T07:46:52;8.32;;;7.43;;
7903;SDS011;3997;48.416;8.512;2023-08-20T07:49:18;7.80;;;6.90;;
7903;SDS011;3997;48.416;8.512;2023-08-20T07:51:44;7.57;;;6.85;;
7903;SDS011;3997;48.416;8.512;2023-08-20T07:54:11;7.35;;;6.65;;
7903;SDS011;3997;48.416;8.512;2023-08-20T07:56:37;7.40;;;6.72;;
7903;SDS011;3997;48.416;8.512;2023-08-20T07:59:04;8.43;;;7.72;;
7903;SDS011;3997;48.416;8.512;2023-08-20T08:01:30;7.10;;;6.60;;
7903;SDS011;3997;48.416;8.512;2023-08-20T08:03:58;7.55;;;6.85;;
7903;SDS011;3997;48.416;8.512;2023-08-20T08:06:24;7.18;;;6.47;;
7903;SDS011;3997;48.416;8.512;2023-08-20T08:08:51;6.85;;;6.35;;
7903;SDS011;3997;48.416;8.512;2023-08-20T08:11:17;7.60;;;6.90;;
7903;SDS011;3997;48.416;8.512;2023-08-20T08:13:44;7.25;;;6.65;;
7903;SDS011;3997;48.416;8.512;2023-08-20T08:16:10;7.05;;;6.38;;
7903;SDS011;3997;48.416;8.512;2023-08-20T08:18:36;6.93;;;6.43;;
7903;SDS011;3997;48.416;8.512;2023-08-20T08:21:04;6.20;;;5.60;;
7903;SDS011;3997;48.416;8.512;2023-08-20T08:23:31;6.47;;;5.90;;
7903;SDS011;3997;48.416;8.512;2023-08-20T08:25:57;6.63;;;6.00;;
7903;SDS011;3997;48.416;8.512;2023-08-20T08:28:24;6.60;;;6.13;;
7903;SDS011;3997;48.416;8.512;2023-08-20T08:30:50;7.45;;;6.85;;
7903;SDS011;3997;48.416;8.512;2023-08-20T08:33:16;7.00;;;6.40;;
7903;SDS011;3997;48.416;8.512;2023-08-20T08:35:43;6.68;;;6.18;;
7903;SDS011;3997;48.416;8.512;2023-08-20T08:38:11;8.88;;;6.25;;
7903;SDS011;3997;48.416;8.512;2023-08-20T08:40:37;6.25;;;5.75;;
7903;SDS011;3997;48.416;8.512;2023-08-20T08:43:06;7.15;;;6.18;;
7903;SDS011;3997;48.416;8.512;2023-08-20T08:45:32;6.70;;;6.20;;
7903;SDS011;3997;48.416;8.512;2023-08-20T08:47:59;7.00;;;6.40;;
7903;SDS011;3997;48.416;8.512;2023-08-20T08:50:26;6.38;;;5.78;;
7903;SDS011;3997;48.416;8.512;2023-08-20T08:52:53;6.65;;;6.05;;
7903;SDS011;3997;48.416;8.512;2023-08-20T08:55:21;7.38;;;5.57;;
7903;SDS011;3997;48.416;8.512;2023-08-20T08:57:47;5.88;;;5.38;;
7903;SDS011;3997;48.416;8.512;2023-08-20T09:00:14;6.10;;;5.60;;
7903;SDS011;3997;48.416;8.512;2023-08-20T09:02:41;5.97;;;5.57;;
7903;SDS011;3997;48.416;8.512;2023-08-20T09:05:07;6.15;;;5.53;;
7903;SDS011;3997;48.416;8.512;2023-08-20T09:07:34;6.13;;;5.22;;
7903;SDS011;3997;48.416;8.512;2023-08-20T09:10:00;5.68;;;5.35;;
7903;SDS011;3997;48.416;8.512;2023-08-20T09:12:28;6.18;;;5.57;;
7903;SDS011;3997;48.416;8.512;2023-08-20T09:15:00;5.88;;;5.35;;
7903;SDS011;3997;48.416;8.512;2023-08-20T09:17:26;5.95;;;5.45;;
7903;SDS011;3997;48.416;8.512;2023-08-20T09:19:53;5.80;;;5.22;;
7903;SDS011;3997;48.416;8.512;2023-08-20T09:22:20;5.90;;;5.40;;
7903;SDS011;3997;48.416;8.512;2023-08-20T09:24:51;7.00;;;5.45;;
7903;SDS011;3997;48.416;8.512;2023-08-20T09:27:18;5.85;;;5.40;;
7903;SDS011;3997;48.416;8.512;2023-08-20T09:29:46;5.65;;;5.15;;
7903;SDS011;3997;48.416;8.512;2023-08-20T09:32:13;5.88;;;5.43;;
7903;SDS011;3997;48.416;8.512;2023-08-20T09:34:40;5.20;;;4.80;;
7903;SDS011;3997;48.416;8.512;2023-08-20T09:37:09;5.43;;;4.93;;
7903;SDS011;3997;48.416;8.512;2023-08-20T09:39:36;5.13;;;4.63;;
7903;SDS011;3997;48.416;8.512;2023-08-20T09:42:03;5.68;;;5.35;;
7903;SDS011;3997;48.416;8.512;2023-08-20T09:44:32;4.88;;;4.50;;
7903;SDS011;3997;48.416;8.512;2023-08-20T09:46:59;5.72;;;5.20;;
7903;SDS011;3997;48.416;8.512;2023-08-20T09:49:26;5.07;;;4.68;;
7903;SDS011;3997;48.416;8.512;2023-08-20T09:51:55;5.00;;;4.60;;
7903;SDS011;3997;48.416;8.512;2023-08-20T09:54:26;5.25;;;4.75;;
7903;SDS011;3997;48.416;8.512;2023-08-20T09:56:54;4.65;;;4.35;;
7903;SDS011;3997;48.416;8.512;2023-08-20T09:59:24;5.55;;;5.15;;
7903;SDS011;3997;48.416;8.512;2023-08-20T10:01:51;5.20;;;4.80;;
7903;SDS011;3997;48.416;8.512;2023-08-20T10:04:20;4.88;;;4.50;;
7903;SDS011;3997;48.416;8.512;2023-08-20T10:06:47;5.18;;;4.78;;
7903;SDS011;3997;48.416;8.512;2023-08-20T10:09:14;5.70;;;5.20;;
7903;SDS011;3997;48.416;8.512;2023-08-20T10:11:40;5.60;;;5.20;;
7903;SDS011;3997;48.416;8.512;2023-08-20T10:14:07;5.13;;;4.72;;
7903;SDS011;3997;48.416;8.512;2023-08-20T10:16:34;4.68;;;4.35;;
7903;SDS011;3997;48.416;8.512;2023-08-20T10:19:01;5.32;;;5.03;;
7903;SDS011;3997;48.416;8.512;2023-08-20T10:21:29;5.20;;;4.80;;
7903;SDS011;3997;48.416;8.512;2023-08-20T10:23:55;5.45;;;4.78;;
7903;SDS011;3997;48.416;8.512;2023-08-20T10:26:22;5.20;;;4.90;;
7903;SDS011;3997;48.416;8.512;2023-08-20T10:28:49;5.18;;;4.85;;
7903;SDS011;3997;48.416;8.512;2023-08-20T10:31:16;5.35;;;4.85;;
7903;SDS011;3997;48.416;8.512;2023-08-20T10:33:48;4.93;;;4.50;;
7903;SDS011;3997;48.416;8.512;2023-08-20T10:36:16;4.90;;;4.45;;
7903;SDS011;3997;48.416;8.512;2023-08-20T10:38:45;5.22;;;4.50;;
7903;SDS011;3997;48.416;8.512;2023-08-20T10:41:12;5.03;;;4.72;;
7903;SDS011;3997;48.416;8.512;2023-08-20T10:43:46;4.57;;;4.28;;
7903;SDS011;3997;48.416;8.512;2023-08-20T10:46:16;5.55;;;5.05;;
7903;SDS011;3997;48.416;8.512;2023-08-20T10:48:43;4.90;;;4.60;;
7903;SDS011;3997;48.416;8.512;2023-08-20T10:51:10;5.47;;;4.88;;
7903;SDS011;3997;48.416;8.512;2023-08-20T10:53:37;4.03;;;3.72;;
7903;SDS011;3997;48.416;8.512;2023-08-20T10:56:09;5.07;;;4.53;;
7903;SDS011;3997;48.416;8.512;2023-08-20T10:58:38;4.72;;;4.30;;
7903;SDS011;3997;48.416;8.512;2023-08-20T11:01:20;4.85;;;4.40;;
7903;SDS011;3997;48.416;8.512;2023-08-20T11:03:47;5.00;;;4.60;;
7903;SDS011;3997;48.416;8.512;2023-08-20T11:06:14;6.28;;;4.72;;
7903;SDS011;3997;48.416;8.512;2023-08-20T11:08:41;5.35;;;4.95;;
7903;SDS011;3997;48.416;8.512;2023-08-20T11:11:10;4.80;;;4.57;;
7903;SDS011;3997;48.416;8.512;2023-08-20T11:13:36;4.70;;;4.30;;
7903;SDS011;3997;48.416;8.512;2023-08-20T11:16:03;4.85;;;4.45;;
7903;SDS011;3997;48.416;8.512;2023-08-20T11:18:30;5.05;;;4.65;;
7903;SDS011;3997;48.416;8.512;2023-08-20T11:20:56;4.97;;;4.68;;
7903;SDS011;3997;48.416;8.512;2023-08-20T11:23:23;5.43;;;5.03;;
7903;SDS011;3997;48.416;8.512;2023-08-20T11:25:50;5.10;;;4.70;;
7903;SDS011;3997;48.416;8.512;2023-08-20T11:28:18;4.90;;;4.50;;
7903;SDS011;3997;48.416;8.512;2023-08-20T11:30:45;4.90;;;4.28;;
7903;SDS011;3997;48.416;8.512;2023-08-20T11:33:12;4.95;;;4.53;;
7903;SDS011;3997;48.416;8.512;2023-08-20T11:35:38;4.80;;;4.38;;
7903;SDS011;3997;48.416;8.512;2023-08-20T11:38:05;4.63;;;4.30;;
7903;SDS011;3997;48.416;8.512;2023-08-20T11:40:32;4.93;;;4.55;;
7903;SDS011;3997;48.416;8.512;2023-08-20T11:42:58;4.70;;;4.40;;
7903;SDS011;3997;48.416;8.512;2023-08-20T11:45:26;4.63;;;4.32;;
7903;SDS011;3997;48.416;8.512;2023-08-20T11:47:55;5.68;;;4.47;;
7903;SDS011;3997;48.416;8.512;2023-08-20T11:50:21;4.82;;;4.40;;
7903;SDS011;3997;48.416;8.512;2023-08-20T11:52:48;5.00;;;4.40;;
7903;SDS011;3997;48.416;8.512;2023-08-20T11:55:14;4.50;;;4.20;;
7903;SDS011;3997;48.416;8.512;2023-08-20T11:57:49;4.30;;;4.00;;
7903;SDS011;3997;48.416;8.512;2023-08-20T12:00:23;4.57;;;4.25;;
7903;SDS011;3997;48.416;8.512;2023-08-20T12:02:53;4.80;;;4.40;;
7903;SDS011;3997;48.416;8.512;2023-08-20T12:05:20;5.55;;;4.50;;
7903;SDS011;3997;48.416;8.512;2023-08-20T12:07:54;4.63;;;4.20;;
7903;SDS011;3997;48.416;8.512;2023-08-20T12:10:21;4.63;;;4.22;;
7903;SDS011;3997;48.416;8.512;2023-08-20T12:12:47;4.70;;;4.40;;
7903;SDS011;3997;48.416;8.512;2023-08-20T12:15:14;6.55;;;4.13;;
7903;SDS011;3997;48.416;8.512;2023-08-20T12:17:40;4.32;;;3.95;;
7903;SDS011;3997;48.416;8.512;2023-08-20T12:20:08;4.85;;;4.45;;
7903;SDS011;3997;48.416;8.512;2023-08-20T12:22:37;4.97;;;4.28;;
7903;SDS011;3997;48.416;8.512;2023-08-20T12:25:04;4.68;;;4.28;;
7903;SDS011;3997;48.416;8.512;2023-08-20T12:27:31;4.40;;;4.00;;
7903;SDS011;3997;48.416;8.512;2023-08-20T12:29:57;6.35;;;4.40;;
7903;SDS011;3997;48.416;8.512;2023-08-20T12:32:24;4.60;;;4.30;;
7903;SDS011;3997;48.416;8.512;2023-08-20T12:34:50;4.03;;;3.63;;
7903;SDS011;3997;48.416;8.512;2023-08-20T12:37:18;4.50;;;4.10;;
7903;SDS011;3997;48.416;8.512;2023-08-20T12:39:45;4.60;;;4.30;;
7903;SDS011;3997;48.416;8.512;2023-08-20T12:42:11;5.78;;;4.55;;
7903;SDS011;3997;48.416;8.512;2023-08-20T12:44:38;4.25;;;3.95;;
7903;SDS011;3997;48.416;8.512;2023-08-20T12:47:04;4.57;;;4.18;;
7903;SDS011;3997;48.416;8.512;2023-08-20T12:49:31;5.18;;;4.70;;
7903;SDS011;3997;48.416;8.512;2023-08-20T12:51:57;4.63;;;4.25;;
7903;SDS011;3997;48.416;8.512;2023-08-20T12:54:25;4.57;;;4.28;;
7903;SDS011;3997;48.416;8.512;2023-08-20T12:56:51;4.72;;;4.43;;
7903;SDS011;3997;48.416;8.512;2023-08-20T12:59:18;5.30;;;4.90;;
7903;SDS011;3997;48.416;8.512;2023-08-20T13:01:44;4.90;;;4.50;;
7903;SDS011;3997;48.416;8.512;2023-08-20T13:04:12;5.28;;;4.78;;
7903;SDS011;3997;48.416;8.512;2023-08-20T13:06:38;4.57;;;4.28;;
7903;SDS011;3997;48.416;8.512;2023-08-20T13:09:05;5.03;;;4.63;;
7903;SDS011;3997;48.416;8.512;2023-08-20T13:11:35;4.40;;;4.10;;
7903;SDS011;3997;48.416;8.512;2023-08-20T13:14:02;5.05;;;4.55;;
7903;SDS011;3997;48.416;8.512;2023-08-20T13:16:29;4.50;;;4.20;;
7903;SDS011;3997;48.416;8.512;2023-08-20T13:18:55;5.03;;;4.47;;
7903;SDS011;3997;48.416;8.512;2023-08-20T13:21:22;5.72;;;4.78;;
7903;SDS011;3997;48.416;8.512;2023-08-20T13:23:49;4.57;;;4.28;;
7903;SDS011;3997;48.416;8.512;2023-08-20T13:26:15;5.47;;;5.05;;
7903;SDS011;3997;48.416;8.512;2023-08-20T13:28:43;5.20;;;4.80;;
7903;SDS011;3997;48.416;8.512;2023-08-20T13:31:09;4.53;;;4.22;;
7903;SDS011;3997;48.416;8.512;2023-08-20T13:33:36;4.90;;;4.40;;
7903;SDS011;3997;48.416;8.512;2023-08-20T13:36:02;5.15;;;4.75;;
7903;SDS011;3997;48.416;8.512;2023-08-20T13:38:29;5.07;;;4.68;;
7903;SDS011;3997;48.416;8.512;2023-08-20T13:40:55;4.85;;;4.43;;
7903;SDS011;3997;48.416;8.512;2023-08-20T13:43:23;5.88;;;4.53;;
7903;SDS011;3997;48.416;8.512;2023-08-20T13:45:50;5.10;;;4.60;;
7903;SDS011;3997;48.416;8.512;2023-08-20T13:48:17;5.03;;;4.65;;
7903;SDS011;3997;48.416;8.512;2023-08-20T13:50:45;5.07;;;4.68;;
7903;SDS011;3997;48.416;8.512;2023-08-20T13:53:11;5.90;;;4.13;;
7903;SDS011;3997;48.416;8.512;2023-08-20T13:55:37;5.03;;;4.38;;
7903;SDS011;3997;48.416;8.512;2023-08-20T13:58:04;4.82;;;4.35;;
7903;SDS011;3997;48.416;8.512;2023-08-20T14:00:30;5.00;;;4.65;;
7903;SDS011;3997;48.416;8.512;2023-08-20T14:02:58;4.70;;;4.40;;
7903;SDS011;3997;48.416;8.512;2023-08-20T14:05:25;4.90;;;4.60;;
7903;SDS011;3997;48.416;8.512;2023-08-20T14:07:51;5.03;;;4.65;;
7903;SDS011;3997;48.416;8.512;2023-08-20T14:10:18;4.50;;;4.20;;
7903;SDS011;3997;48.416;8.512;2023-08-20T14:12:44;4.78;;;4.32;;
7903;SDS011;3997;48.416;8.512;2023-08-20T14:15:10;5.40;;;4.57;;
7903;SDS011;3997;48.416;8.512;2023-08-20T14:17:37;5.18;;;4.60;;
7903;SDS011;3997;48.416;8.512;2023-08-20T14:20:05;5.50;;;4.93;;
7903;SDS011;3997;48.416;8.512;2023-08-20T14:22:33;5.20;;;4.78;;
7903;SDS011;3997;48.416;8.512;2023-08-20T14:25:00;5.03;;;4.53;;
7903;SDS011;3997;48.416;8.512;2023-08-20T14:27:26;5.32;;;4.88;;
7903;SDS011;3997;48.416;8.512;2023-08-20T14:29:53;5.25;;;4.72;;
7903;SDS011;3997;48.416;8.512;2023-08-20T14:32:19;4.93;;;4.60;;
7903;SDS011;3997;48.416;8.512;2023-08-20T14:34:46;6.25;;;4.80;;
7903;SDS011;3997;48.416;8.512;2023-08-20T14:37:14;5.32;;;4.93;;
7903;SDS011;3997;48.416;8.512;2023-08-20T14:39:40;5.28;;;4.88;;
7903;SDS011;3997;48.416;8.512;2023-08-20T14:42:06;5.00;;;4.60;;
7903;SDS011;3997;48.416;8.512;2023-08-20T14:44:33;5.22;;;4.82;;
7903;SDS011;3997;48.416;8.512;2023-08-20T14:46:59;5.30;;;4.80;;
7903;SDS011;3997;48.416;8.512;2023-08-20T14:49:26;5.32;;;4.85;;
7903;SDS011;3997;48.416;8.512;2023-08-20T14:51:53;5.25;;;4.75;;
7903;SDS011;3997;48.416;8.512;2023-08-20T14:54:21;5.32;;;4.85;;
7903;SDS011;3997;48.416;8.512;2023-08-20T14:56:48;5.93;;;4.78;;
7903;SDS011;3997;48.416;8.512;2023-08-20T14:59:14;5.20;;;4.78;;
7903;SDS011;3997;48.416;8.512;2023-08-20T15:01:40;4.82;;;4.43;;
7903;SDS011;3997;48.416;8.512;2023-08-20T15:04:07;6.22;;;4.50;;
7903;SDS011;3997;48.416;8.512;2023-08-20T15:06:33;4.82;;;4.43;;
7903;SDS011;3997;48.416;8.512;2023-08-20T15:09:00;5.75;;;4.53;;